sensor_id;sensor_type;location;lat;lon;timestamp;P1;durP1;ratioP1;P2;durP2;ratioP2
54909;SDS011;63189;51.240;9.964;2023-12-07T00:01:32;14.63;;;9.90;;
54909;SDS011;63189;51.240;9.964;2023-12-07T00:03:59;12.88;;;9.20;;
54909;SDS011;63189;51.240;9.964;2023-12-07T00:06:25;12.15;;;8.38;;
54909;SDS011;63189;51.240;9.964;2023-12-07T00:08:50;14.75;;;9.65;;
54909;SDS011;63189;51.240;9.964;2023-12-07T00:11:16;17.58;;;11.45;;
54909;SDS011;63189;51.240;9.964;2023-12-07T00:13:41;15.15;;;9.30;;
54909;SDS011;63189;51.240;9.964;2023-12-07T00:16:06;14.95;;;10.77;;
54909;SDS011;63189;51.240;9.964;2023-12-07T00:18:32;20.95;;;13.48;;
54909;SDS011;63189;51.240;9.964;2023-12-07T00:20:57;17.60;;;11.77;;
54909;SDS011;63189;51.240;9.964;2023-12-07T00:23:23;18.05;;;11.93;;
54909;SDS011;63189;51.240;9.964;2023-12-07T00:25:48;16.67;;;11.98;;
54909;SDS011;63189;51.240;9.964;2023-12-07T00:28:14;17.80;;;12.05;;
54909;SDS011;63189;51.240;9.964;2023-12-07T00:30:39;18.85;;;12.95;;
54909;SDS011;63189;51.240;9.964;2023-12-07T00:33:07;19.10;;;13.25;;
54909;SDS011;63189;51.240;9.964;2023-12-07T00:35:32;18.98;;;13.40;;
54909;SDS011;63189;51.240;9.964;2023-12-07T00:37:58;17.55;;;12.05;;
54909;SDS011;63189;51.240;9.964;2023-12-07T00:40:23;19.50;;;12.65;;
54909;SDS011;63189;51.240;9.964;2023-12-07T00:42:49;17.27;;;11.70;;
54909;SDS011;63189;51.240;9.964;2023-12-07T00:45:14;17.45;;;12.25;;
54909;SDS011;63189;51.240;9.964;2023-12-07T00:47:40;19.25;;;12.60;;
54909;SDS011;63189;51.240;9.964;2023-12-07T00:50:05;19.38;;;13.02;;
54909;SDS011;63189;51.240;9.964;2023-12-07T00:52:31;16.27;;;12.63;;
54909;SDS011;63189;51.240;9.964;2023-12-07T00:54:57;19.67;;;13.52;;
54909;SDS011;63189;51.240;9.964;2023-12-07T00:57:22;19.88;;;13.90;;
54909;SDS011;63189;51.240;9.964;2023-12-07T00:59:47;19.15;;;11.43;;
54909;SDS011;63189;51.240;9.964;2023-12-07T01:02:13;18.70;;;13.30;;
54909;SDS011;63189;51.240;9.964;2023-12-07T01:04:38;17.75;;;12.23;;
54909;SDS011;63189;51.240;9.964;2023-12-07T01:07:04;19.70;;;13.93;;
54909;SDS011;63189;51.240;9.964;2023-12-07T01:09:29;19.25;;;12.75;;
54909;SDS011;63189;51.240;9.964;2023-12-07T01:11:55;19.35;;;12.30;;
54909;SDS011;63189;51.240;9.964;2023-12-07T01:14:20;18.30;;;13.02;;
54909;SDS011;63189;51.240;9.964;2023-12-07T01:16:45;19.13;;;12.73;;
54909;SDS011;63189;51.240;9.964;2023-12-07T01:19:11;22.45;;;13.60;;
54909;SDS011;63189;51.240;9.964;2023-12-07T01:21:40;21.55;;;13.73;;
54909;SDS011;63189;51.240;9.964;2023-12-07T01:24:06;18.95;;;12.82;;
54909;SDS011;63189;51.240;9.964;2023-12-07T01:26:32;18.00;;;12.80;;
54909;SDS011;63189;51.240;9.964;2023-12-07T01:28:57;19.17;;;12.70;;
54909;SDS011;63189;51.240;9.964;2023-12-07T01:31:23;17.60;;;11.95;;
54909;SDS011;63189;51.240;9.964;2023-12-07T01:33:48;19.05;;;12.30;;
54909;SDS011;63189;51.240;9.964;2023-12-07T01:36:13;18.65;;;13.13;;
54909;SDS011;63189;51.240;9.964;2023-12-07T01:38:39;21.20;;;13.70;;
54909;SDS011;63189;51.240;9.964;2023-12-07T01:41:04;18.58;;;12.15;;
54909;SDS011;63189;51.240;9.964;2023-12-07T01:43:30;18.50;;;12.70;;
54909;SDS011;63189;51.240;9.964;2023-12-07T01:45:56;18.52;;;13.07;;
54909;SDS011;63189;51.240;9.964;2023-12-07T01:48:23;19.15;;;13.07;;
54909;SDS011;63189;51.240;9.964;2023-12-07T01:50:51;18.30;;;13.35;;
54909;SDS011;63189;51.240;9.964;2023-12-07T01:53:18;21.70;;;13.55;;
54909;SDS011;63189;51.240;9.964;2023-12-07T01:55:43;16.60;;;12.32;;
54909;SDS011;63189;51.240;9.964;2023-12-07T01:58:10;16.38;;;11.90;;
54909;SDS011;63189;51.240;9.964;2023-12-07T02:00:35;16.58;;;11.90;;
54909;SDS011;63189;51.240;9.964;2023-12-07T02:03:04;20.70;;;13.70;;
54909;SDS011;63189;51.240;9.964;2023-12-07T02:05:31;17.63;;;12.52;;
54909;SDS011;63189;51.240;9.964;2023-12-07T02:07:57;15.27;;;11.20;;
54909;SDS011;63189;51.240;9.964;2023-12-07T02:10:23;18.20;;;12.98;;
54909;SDS011;63189;51.240;9.964;2023-12-07T02:12:49;17.38;;;12.45;;
54909;SDS011;63189;51.240;9.964;2023-12-07T02:15:15;15.50;;;10.50;;
54909;SDS011;63189;51.240;9.964;2023-12-07T02:22:48;20.15;;;13.00;;
54909;SDS011;63189;51.240;9.964;2023-12-07T02:25:18;21.98;;;14.02;;
54909;SDS011;63189;51.240;9.964;2023-12-07T02:27:48;18.60;;;12.90;;
54909;SDS011;63189;51.240;9.964;2023-12-07T02:30:14;19.00;;;12.45;;
54909;SDS011;63189;51.240;9.964;2023-12-07T02:32:40;21.67;;;13.95;;
54909;SDS011;63189;51.240;9.964;2023-12-07T02:35:09;20.88;;;14.00;;
54909;SDS011;63189;51.240;9.964;2023-12-07T02:37:46;23.70;;;15.05;;
54909;SDS011;63189;51.240;9.964;2023-12-07T02:40:15;21.20;;;14.82;;
54909;SDS011;63189;51.240;9.964;2023-12-07T02:42:42;25.83;;;16.05;;
54909;SDS011;63189;51.240;9.964;2023-12-07T02:45:09;22.38;;;14.63;;
54909;SDS011;63189;51.240;9.964;2023-12-07T02:47:37;15.93;;;11.73;;
54909;SDS011;63189;51.240;9.964;2023-12-07T02:50:04;17.10;;;12.10;;
54909;SDS011;63189;51.240;9.964;2023-12-07T02:52:31;19.52;;;12.75;;
54909;SDS011;63189;51.240;9.964;2023-12-07T02:54:57;22.90;;;15.02;;
54909;SDS011;63189;51.240;9.964;2023-12-07T02:57:22;23.58;;;15.50;;
54909;SDS011;63189;51.240;9.964;2023-12-07T02:59:48;21.33;;;15.10;;
54909;SDS011;63189;51.240;9.964;2023-12-07T03:02:13;22.10;;;14.35;;
54909;SDS011;63189;51.240;9.964;2023-12-07T03:04:38;25.63;;;15.43;;
54909;SDS011;63189;51.240;9.964;2023-12-07T03:07:04;21.33;;;14.85;;
54909;SDS011;63189;51.240;9.964;2023-12-07T03:09:29;22.40;;;14.63;;
54909;SDS011;63189;51.240;9.964;2023-12-07T03:11:55;22.60;;;14.95;;
54909;SDS011;63189;51.240;9.964;2023-12-07T03:14:20;24.15;;;14.80;;
54909;SDS011;63189;51.240;9.964;2023-12-07T03:16:45;20.95;;;13.85;;
54909;SDS011;63189;51.240;9.964;2023-12-07T03:19:11;22.27;;;14.45;;
54909;SDS011;63189;51.240;9.964;2023-12-07T03:21:39;21.73;;;13.63;;
54909;SDS011;63189;51.240;9.964;2023-12-07T03:24:06;23.05;;;15.13;;
54909;SDS011;63189;51.240;9.964;2023-12-07T03:26:33;20.33;;;13.98;;
54909;SDS011;63189;51.240;9.964;2023-12-07T03:28:58;19.33;;;13.55;;
54909;SDS011;63189;51.240;9.964;2023-12-07T03:31:24;19.00;;;13.68;;
54909;SDS011;63189;51.240;9.964;2023-12-07T03:33:49;18.08;;;12.63;;
54909;SDS011;63189;51.240;9.964;2023-12-07T03:36:15;18.73;;;12.77;;
54909;SDS011;63189;51.240;9.964;2023-12-07T03:38:40;20.17;;;13.57;;
54909;SDS011;63189;51.240;9.964;2023-12-07T03:41:05;21.42;;;13.48;;
54909;SDS011;63189;51.240;9.964;2023-12-07T03:43:31;22.98;;;14.25;;
54909;SDS011;63189;51.240;9.964;2023-12-07T03:45:56;20.83;;;13.65;;
54909;SDS011;63189;51.240;9.964;2023-12-07T03:48:21;23.08;;;14.52;;
54909;SDS011;63189;51.240;9.964;2023-12-07T03:50:47;22.45;;;14.48;;
54909;SDS011;63189;51.240;9.964;2023-12-07T03:53:12;24.40;;;14.38;;
54909;SDS011;63189;51.240;9.964;2023-12-07T03:55:38;20.30;;;14.75;;
54909;SDS011;63189;51.240;9.964;2023-12-07T03:58:03;19.75;;;13.02;;
54909;SDS011;63189;51.240;9.964;2023-12-07T04:00:30;19.30;;;12.70;;
54909;SDS011;63189;51.240;9.964;2023-12-07T04:02:56;18.83;;;12.43;;
54909;SDS011;63189;51.240;9.964;2023-12-07T04:05:22;18.40;;;12.75;;
54909;SDS011;63189;51.240;9.964;2023-12-07T04:07:47;19.83;;;13.88;;
54909;SDS011;63189;51.240;9.964;2023-12-07T04:10:13;21.30;;;15.15;;
54909;SDS011;63189;51.240;9.964;2023-12-07T04:12:38;20.73;;;14.43;;
54909;SDS011;63189;51.240;9.964;2023-12-07T04:15:03;18.63;;;12.45;;
54909;SDS011;63189;51.240;9.964;2023-12-07T04:17:29;19.98;;;12.98;;
54909;SDS011;63189;51.240;9.964;2023-12-07T04:19:55;23.42;;;14.88;;
54909;SDS011;63189;51.240;9.964;2023-12-07T04:22:20;19.98;;;13.30;;
54909;SDS011;63189;51.240;9.964;2023-12-07T04:24:45;19.20;;;13.18;;
54909;SDS011;63189;51.240;9.964;2023-12-07T04:27:10;17.02;;;11.73;;
54909;SDS011;63189;51.240;9.964;2023-12-07T04:29:36;20.90;;;14.15;;
54909;SDS011;63189;51.240;9.964;2023-12-07T04:32:01;19.65;;;13.25;;
54909;SDS011;63189;51.240;9.964;2023-12-07T04:34:27;22.33;;;15.40;;
54909;SDS011;63189;51.240;9.964;2023-12-07T04:36:52;19.33;;;12.68;;
54909;SDS011;63189;51.240;9.964;2023-12-07T04:39:18;19.17;;;13.10;;
54909;SDS011;63189;51.240;9.964;2023-12-07T04:41:43;19.77;;;13.30;;
54909;SDS011;63189;51.240;9.964;2023-12-07T04:44:08;18.92;;;13.18;;
54909;SDS011;63189;51.240;9.964;2023-12-07T04:46:34;20.92;;;13.93;;
54909;SDS011;63189;51.240;9.964;2023-12-07T04:49:00;21.23;;;14.23;;
54909;SDS011;63189;51.240;9.964;2023-12-07T04:51:26;17.80;;;12.48;;
54909;SDS011;63189;51.240;9.964;2023-12-07T04:53:51;16.52;;;12.10;;
54909;SDS011;63189;51.240;9.964;2023-12-07T04:56:16;19.88;;;12.82;;
54909;SDS011;63189;51.240;9.964;2023-12-07T04:58:42;18.35;;;12.05;;
54909;SDS011;63189;51.240;9.964;2023-12-07T05:01:07;20.08;;;13.43;;
54909;SDS011;63189;51.240;9.964;2023-12-07T05:03:32;16.13;;;11.23;;
54909;SDS011;63189;51.240;9.964;2023-12-07T05:05:58;19.73;;;13.60;;
54909;SDS011;63189;51.240;9.964;2023-12-07T05:08:23;20.08;;;13.57;;
54909;SDS011;63189;51.240;9.964;2023-12-07T05:10:48;19.35;;;13.75;;
54909;SDS011;63189;51.240;9.964;2023-12-07T05:13:14;21.90;;;14.32;;
54909;SDS011;63189;51.240;9.964;2023-12-07T05:15:39;17.52;;;12.00;;
54909;SDS011;63189;51.240;9.964;2023-12-07T05:18:05;19.45;;;13.05;;
54909;SDS011;63189;51.240;9.964;2023-12-07T05:20:30;19.33;;;13.10;;
54909;SDS011;63189;51.240;9.964;2023-12-07T05:22:56;19.58;;;13.65;;
54909;SDS011;63189;51.240;9.964;2023-12-07T05:25:21;18.38;;;12.98;;
54909;SDS011;63189;51.240;9.964;2023-12-07T05:27:46;18.58;;;13.10;;
54909;SDS011;63189;51.240;9.964;2023-12-07T05:30:12;20.27;;;14.30;;
54909;SDS011;63189;51.240;9.964;2023-12-07T05:32:40;21.02;;;13.65;;
54909;SDS011;63189;51.240;9.964;2023-12-07T05:35:05;21.73;;;14.80;;
54909;SDS011;63189;51.240;9.964;2023-12-07T05:37:32;18.27;;;13.23;;
54909;SDS011;63189;51.240;9.964;2023-12-07T05:39:57;20.52;;;13.32;;
54909;SDS011;63189;51.240;9.964;2023-12-07T05:42:22;23.90;;;16.02;;
54909;SDS011;63189;51.240;9.964;2023-12-07T05:44:48;40.03;;;25.27;;
54909;SDS011;63189;51.240;9.964;2023-12-07T05:47:13;19.98;;;13.15;;
54909;SDS011;63189;51.240;9.964;2023-12-07T05:49:38;18.45;;;13.10;;
54909;SDS011;63189;51.240;9.964;2023-12-07T05:52:04;19.95;;;13.63;;
54909;SDS011;63189;51.240;9.964;2023-12-07T05:54:29;20.33;;;13.77;;
54909;SDS011;63189;51.240;9.964;2023-12-07T05:56:55;17.50;;;12.95;;
54909;SDS011;63189;51.240;9.964;2023-12-07T05:59:20;19.05;;;14.30;;
54909;SDS011;63189;51.240;9.964;2023-12-07T06:01:45;17.77;;;12.55;;
54909;SDS011;63189;51.240;9.964;2023-12-07T06:04:11;20.23;;;14.20;;
54909;SDS011;63189;51.240;9.964;2023-12-07T06:06:37;23.25;;;15.77;;
54909;SDS011;63189;51.240;9.964;2023-12-07T06:09:03;22.40;;;15.25;;
54909;SDS011;63189;51.240;9.964;2023-12-07T06:11:30;25.73;;;16.73;;
54909;SDS011;63189;51.240;9.964;2023-12-07T06:13:56;25.05;;;16.65;;
54909;SDS011;63189;51.240;9.964;2023-12-07T06:16:23;22.02;;;15.48;;
54909;SDS011;63189;51.240;9.964;2023-12-07T06:18:49;25.30;;;16.70;;
54909;SDS011;63189;51.240;9.964;2023-12-07T06:21:14;27.48;;;18.13;;
54909;SDS011;63189;51.240;9.964;2023-12-07T06:23:40;24.88;;;16.63;;
54909;SDS011;63189;51.240;9.964;2023-12-07T06:26:06;23.58;;;15.38;;
54909;SDS011;63189;51.240;9.964;2023-12-07T06:28:32;26.10;;;17.20;;
54909;SDS011;63189;51.240;9.964;2023-12-07T06:30:57;27.45;;;17.88;;
54909;SDS011;63189;51.240;9.964;2023-12-07T06:33:24;29.52;;;17.80;;
54909;SDS011;63189;51.240;9.964;2023-12-07T06:35:49;26.75;;;16.73;;
54909;SDS011;63189;51.240;9.964;2023-12-07T06:38:14;24.50;;;16.48;;
54909;SDS011;63189;51.240;9.964;2023-12-07T06:40:40;24.58;;;16.10;;
54909;SDS011;63189;51.240;9.964;2023-12-07T06:43:05;25.25;;;16.60;;
54909;SDS011;63189;51.240;9.964;2023-12-07T06:45:30;25.13;;;16.60;;
54909;SDS011;63189;51.240;9.964;2023-12-07T06:47:56;26.65;;;16.75;;
54909;SDS011;63189;51.240;9.964;2023-12-07T06:50:21;28.15;;;17.23;;
54909;SDS011;63189;51.240;9.964;2023-12-07T06:52:47;24.17;;;15.45;;
54909;SDS011;63189;51.240;9.964;2023-12-07T06:55:12;28.88;;;18.52;;
54909;SDS011;63189;51.240;9.964;2023-12-07T06:57:39;26.35;;;17.20;;
54909;SDS011;63189;51.240;9.964;2023-12-07T07:00:05;28.20;;;17.38;;
54909;SDS011;63189;51.240;9.964;2023-12-07T07:02:35;31.42;;;20.33;;
54909;SDS011;63189;51.240;9.964;2023-12-07T07:05:02;33.70;;;21.55;;
54909;SDS011;63189;51.240;9.964;2023-12-07T07:07:28;30.80;;;19.88;;
54909;SDS011;63189;51.240;9.964;2023-12-07T07:09:56;27.38;;;18.38;;
54909;SDS011;63189;51.240;9.964;2023-12-07T07:12:22;37.30;;;24.33;;
54909;SDS011;63189;51.240;9.964;2023-12-07T07:14:48;37.15;;;22.95;;
54909;SDS011;63189;51.240;9.964;2023-12-07T07:17:13;32.45;;;20.15;;
54909;SDS011;63189;51.240;9.964;2023-12-07T07:19:39;29.92;;;19.98;;
54909;SDS011;63189;51.240;9.964;2023-12-07T07:22:04;32.22;;;20.10;;
54909;SDS011;63189;51.240;9.964;2023-12-07T07:24:30;30.63;;;18.90;;
54909;SDS011;63189;51.240;9.964;2023-12-07T07:26:55;32.92;;;20.98;;
54909;SDS011;63189;51.240;9.964;2023-12-07T07:29:20;28.10;;;17.75;;
54909;SDS011;63189;51.240;9.964;2023-12-07T07:31:46;28.98;;;18.85;;
54909;SDS011;63189;51.240;9.964;2023-12-07T07:34:11;31.08;;;19.70;;
54909;SDS011;63189;51.240;9.964;2023-12-07T07:36:36;26.67;;;18.05;;
54909;SDS011;63189;51.240;9.964;2023-12-07T07:39:02;28.20;;;17.38;;
54909;SDS011;63189;51.240;9.964;2023-12-07T07:41:29;26.75;;;17.27;;
54909;SDS011;63189;51.240;9.964;2023-12-07T07:43:54;24.25;;;14.63;;
54909;SDS011;63189;51.240;9.964;2023-12-07T07:46:20;24.13;;;16.00;;
54909;SDS011;63189;51.240;9.964;2023-12-07T07:48:45;26.90;;;17.13;;
54909;SDS011;63189;51.240;9.964;2023-12-07T07:51:11;27.92;;;17.35;;
54909;SDS011;63189;51.240;9.964;2023-12-07T07:53:36;25.55;;;16.40;;
54909;SDS011;63189;51.240;9.964;2023-12-07T07:56:02;29.25;;;18.10;;
54909;SDS011;63189;51.240;9.964;2023-12-07T07:58:27;28.08;;;17.77;;
54909;SDS011;63189;51.240;9.964;2023-12-07T08:00:53;32.47;;;20.15;;
54909;SDS011;63189;51.240;9.964;2023-12-07T08:03:18;32.42;;;21.02;;
54909;SDS011;63189;51.240;9.964;2023-12-07T08:05:44;29.67;;;18.55;;
54909;SDS011;63189;51.240;9.964;2023-12-07T08:08:09;26.67;;;17.42;;
54909;SDS011;63189;51.240;9.964;2023-12-07T08:10:35;27.40;;;17.42;;
54909;SDS011;63189;51.240;9.964;2023-12-07T08:13:00;39.92;;;25.27;;
54909;SDS011;63189;51.240;9.964;2023-12-07T08:15:26;27.33;;;17.85;;
54909;SDS011;63189;51.240;9.964;2023-12-07T08:17:51;26.73;;;17.25;;
54909;SDS011;63189;51.240;9.964;2023-12-07T08:20:17;29.63;;;18.40;;
54909;SDS011;63189;51.240;9.964;2023-12-07T08:22:43;28.33;;;18.77;;
54909;SDS011;63189;51.240;9.964;2023-12-07T08:25:09;29.25;;;19.45;;
54909;SDS011;63189;51.240;9.964;2023-12-07T08:27:38;32.35;;;20.42;;
54909;SDS011;63189;51.240;9.964;2023-12-07T08:30:05;31.73;;;19.52;;
54909;SDS011;63189;51.240;9.964;2023-12-07T08:32:31;29.67;;;18.25;;
54909;SDS011;63189;51.240;9.964;2023-12-07T08:34:56;28.27;;;18.50;;
54909;SDS011;63189;51.240;9.964;2023-12-07T08:37:22;31.52;;;19.98;;
54909;SDS011;63189;51.240;9.964;2023-12-07T08:39:47;32.47;;;19.85;;
54909;SDS011;63189;51.240;9.964;2023-12-07T08:42:13;33.08;;;19.15;;
54909;SDS011;63189;51.240;9.964;2023-12-07T08:44:38;35.00;;;21.73;;
54909;SDS011;63189;51.240;9.964;2023-12-07T08:47:04;38.22;;;22.92;;
54909;SDS011;63189;51.240;9.964;2023-12-07T08:49:30;36.05;;;20.63;;
54909;SDS011;63189;51.240;9.964;2023-12-07T08:51:56;31.13;;;19.23;;
54909;SDS011;63189;51.240;9.964;2023-12-07T08:54:22;29.38;;;18.67;;
54909;SDS011;63189;51.240;9.964;2023-12-07T08:56:47;32.80;;;20.48;;
54909;SDS011;63189;51.240;9.964;2023-12-07T08:59:12;34.72;;;20.73;;
54909;SDS011;63189;51.240;9.964;2023-12-07T09:01:38;36.42;;;20.40;;
54909;SDS011;63189;51.240;9.964;2023-12-07T09:04:03;35.00;;;20.98;;
54909;SDS011;63189;51.240;9.964;2023-12-07T09:06:30;37.33;;;22.13;;
54909;SDS011;63189;51.240;9.964;2023-12-07T09:08:55;35.65;;;21.77;;
54909;SDS011;63189;51.240;9.964;2023-12-07T09:11:21;30.23;;;19.65;;
54909;SDS011;63189;51.240;9.964;2023-12-07T09:13:47;35.80;;;20.83;;
54909;SDS011;63189;51.240;9.964;2023-12-07T09:16:12;32.40;;;19.92;;
54909;SDS011;63189;51.240;9.964;2023-12-07T09:18:37;43.28;;;23.73;;
54909;SDS011;63189;51.240;9.964;2023-12-07T09:21:03;33.17;;;21.00;;
54909;SDS011;63189;51.240;9.964;2023-12-07T09:23:34;35.30;;;21.98;;
54909;SDS011;63189;51.240;9.964;2023-12-07T09:26:00;37.40;;;22.73;;
54909;SDS011;63189;51.240;9.964;2023-12-07T09:28:28;35.53;;;20.90;;
54909;SDS011;63189;51.240;9.964;2023-12-07T09:30:54;35.30;;;22.23;;
54909;SDS011;63189;51.240;9.964;2023-12-07T09:33:19;40.42;;;23.70;;
54909;SDS011;63189;51.240;9.964;2023-12-07T09:35:45;34.65;;;21.25;;
54909;SDS011;63189;51.240;9.964;2023-12-07T09:38:10;37.88;;;21.67;;
54909;SDS011;63189;51.240;9.964;2023-12-07T09:40:36;34.17;;;20.55;;
54909;SDS011;63189;51.240;9.964;2023-12-07T09:43:01;36.58;;;21.65;;
54909;SDS011;63189;51.240;9.964;2023-12-07T09:45:27;32.08;;;18.70;;
54909;SDS011;63189;51.240;9.964;2023-12-07T09:47:53;30.90;;;19.63;;
54909;SDS011;63189;51.240;9.964;2023-12-07T09:50:20;32.10;;;19.27;;
54909;SDS011;63189;51.240;9.964;2023-12-07T09:52:48;31.40;;;19.15;;
54909;SDS011;63189;51.240;9.964;2023-12-07T09:55:17;36.15;;;19.98;;
54909;SDS011;63189;51.240;9.964;2023-12-07T09:57:44;31.65;;;19.65;;
54909;SDS011;63189;51.240;9.964;2023-12-07T10:00:11;33.17;;;20.30;;
54909;SDS011;63189;51.240;9.964;2023-12-07T10:02:39;36.83;;;21.88;;
54909;SDS011;63189;51.240;9.964;2023-12-07T10:05:09;36.53;;;21.27;;
54909;SDS011;63189;51.240;9.964;2023-12-07T10:07:39;34.83;;;20.58;;
54909;SDS011;63189;51.240;9.964;2023-12-07T10:10:06;33.55;;;20.10;;
54909;SDS011;63189;51.240;9.964;2023-12-07T10:12:32;30.25;;;19.27;;
54909;SDS011;63189;51.240;9.964;2023-12-07T10:15:14;30.63;;;18.25;;
54909;SDS011;63189;51.240;9.964;2023-12-07T10:20:19;26.85;;;16.55;;
54909;SDS011;63189;51.240;9.964;2023-12-07T10:22:49;25.42;;;16.05;;
54909;SDS011;63189;51.240;9.964;2023-12-07T10:25:32;25.33;;;15.87;;
54909;SDS011;63189;51.240;9.964;2023-12-07T10:28:02;30.88;;;16.48;;
54909;SDS011;63189;51.240;9.964;2023-12-07T10:30:36;26.13;;;16.75;;
54909;SDS011;63189;51.240;9.964;2023-12-07T10:33:03;28.70;;;16.77;;
54909;SDS011;63189;51.240;9.964;2023-12-07T10:35:29;25.65;;;15.85;;
54909;SDS011;63189;51.240;9.964;2023-12-07T10:37:56;28.40;;;17.10;;
54909;SDS011;63189;51.240;9.964;2023-12-07T10:40:22;26.63;;;17.52;;
54909;SDS011;63189;51.240;9.964;2023-12-07T10:42:48;25.95;;;16.10;;
54909;SDS011;63189;51.240;9.964;2023-12-07T10:45:14;28.42;;;17.15;;
54909;SDS011;63189;51.240;9.964;2023-12-07T10:47:43;29.13;;;16.70;;
54909;SDS011;63189;51.240;9.964;2023-12-07T10:50:09;27.17;;;16.90;;
54909;SDS011;63189;51.240;9.964;2023-12-07T10:52:45;25.58;;;16.40;;
54909;SDS011;63189;51.240;9.964;2023-12-07T10:55:16;25.45;;;16.27;;
54909;SDS011;63189;51.240;9.964;2023-12-07T10:57:45;23.75;;;15.13;;
54909;SDS011;63189;51.240;9.964;2023-12-07T11:00:12;23.10;;;14.25;;
54909;SDS011;63189;51.240;9.964;2023-12-07T11:02:37;22.88;;;13.77;;
54909;SDS011;63189;51.240;9.964;2023-12-07T11:05:04;25.23;;;14.90;;
54909;SDS011;63189;51.240;9.964;2023-12-07T11:07:42;22.23;;;13.93;;
54909;SDS011;63189;51.240;9.964;2023-12-07T11:16:04;27.55;;;15.45;;
54909;SDS011;63189;51.240;9.964;2023-12-07T11:18:29;25.90;;;15.43;;
54909;SDS011;63189;51.240;9.964;2023-12-07T11:20:55;23.00;;;14.88;;
54909;SDS011;63189;51.240;9.964;2023-12-07T11:23:21;27.65;;;15.68;;
54909;SDS011;63189;51.240;9.964;2023-12-07T11:25:47;23.02;;;14.50;;
54909;SDS011;63189;51.240;9.964;2023-12-07T11:28:14;21.70;;;13.80;;
54909;SDS011;63189;51.240;9.964;2023-12-07T11:30:44;24.10;;;15.48;;
54909;SDS011;63189;51.240;9.964;2023-12-07T11:33:11;22.25;;;12.55;;
54909;SDS011;63189;51.240;9.964;2023-12-07T11:38:28;17.67;;;11.48;;
54909;SDS011;63189;51.240;9.964;2023-12-07T11:40:54;18.75;;;10.93;;
54909;SDS011;63189;51.240;9.964;2023-12-07T11:45:58;15.23;;;9.73;;
54909;SDS011;63189;51.240;9.964;2023-12-07T11:48:24;17.70;;;10.63;;
54909;SDS011;63189;51.240;9.964;2023-12-07T11:53:26;16.95;;;10.50;;
54909;SDS011;63189;51.240;9.964;2023-12-07T11:55:55;18.00;;;10.15;;
54909;SDS011;63189;51.240;9.964;2023-12-07T11:58:21;16.90;;;11.13;;
54909;SDS011;63189;51.240;9.964;2023-12-07T12:00:47;16.27;;;10.90;;
54909;SDS011;63189;51.240;9.964;2023-12-07T12:03:13;16.92;;;10.45;;
54909;SDS011;63189;51.240;9.964;2023-12-07T12:05:39;16.27;;;11.05;;
54909;SDS011;63189;51.240;9.964;2023-12-07T12:08:06;15.40;;;10.68;;
54909;SDS011;63189;51.240;9.964;2023-12-07T12:10:31;15.98;;;11.63;;
54909;SDS011;63189;51.240;9.964;2023-12-07T12:13:00;18.48;;;11.57;;
54909;SDS011;63189;51.240;9.964;2023-12-07T12:15:27;16.98;;;11.32;;
54909;SDS011;63189;51.240;9.964;2023-12-07T12:17:55;17.42;;;11.20;;
54909;SDS011;63189;51.240;9.964;2023-12-07T12:20:21;23.73;;;12.23;;
54909;SDS011;63189;51.240;9.964;2023-12-07T12:22:46;15.85;;;10.77;;
54909;SDS011;63189;51.240;9.964;2023-12-07T12:25:11;15.93;;;10.73;;
54909;SDS011;63189;51.240;9.964;2023-12-07T12:27:37;15.27;;;10.27;;
54909;SDS011;63189;51.240;9.964;2023-12-07T12:30:03;13.70;;;9.68;;
54909;SDS011;63189;51.240;9.964;2023-12-07T12:32:44;12.88;;;8.75;;
54909;SDS011;63189;51.240;9.964;2023-12-07T12:35:10;15.60;;;10.10;;
54909;SDS011;63189;51.240;9.964;2023-12-07T12:37:38;14.68;;;8.93;;
54909;SDS011;63189;51.240;9.964;2023-12-07T12:40:07;14.18;;;9.02;;
54909;SDS011;63189;51.240;9.964;2023-12-07T12:42:34;12.35;;;8.50;;
54909;SDS011;63189;51.240;9.964;2023-12-07T12:45:02;13.55;;;9.38;;
54909;SDS011;63189;51.240;9.964;2023-12-07T12:47:29;15.35;;;8.77;;
54909;SDS011;63189;51.240;9.964;2023-12-07T12:49:54;10.80;;;8.02;;
54909;SDS011;63189;51.240;9.964;2023-12-07T12:52:19;13.55;;;8.45;;
54909;SDS011;63189;51.240;9.964;2023-12-07T12:54:45;12.95;;;8.63;;
54909;SDS011;63189;51.240;9.964;2023-12-07T12:57:12;14.88;;;9.75;;
54909;SDS011;63189;51.240;9.964;2023-12-07T12:59:39;13.90;;;8.20;;
54909;SDS011;63189;51.240;9.964;2023-12-07T13:02:04;13.80;;;9.20;;
54909;SDS011;63189;51.240;9.964;2023-12-07T13:04:30;16.98;;;9.68;;
54909;SDS011;63189;51.240;9.964;2023-12-07T13:06:56;14.32;;;9.98;;
54909;SDS011;63189;51.240;9.964;2023-12-07T13:09:21;14.68;;;10.25;;
54909;SDS011;63189;51.240;9.964;2023-12-07T13:11:47;14.02;;;9.63;;
54909;SDS011;63189;51.240;9.964;2023-12-07T13:14:12;15.57;;;9.98;;
54909;SDS011;63189;51.240;9.964;2023-12-07T13:16:38;16.23;;;10.60;;
54909;SDS011;63189;51.240;9.964;2023-12-07T13:19:03;14.07;;;8.98;;
54909;SDS011;63189;51.240;9.964;2023-12-07T13:21:28;15.85;;;9.73;;
54909;SDS011;63189;51.240;9.964;2023-12-07T13:23:54;15.73;;;10.27;;
54909;SDS011;63189;51.240;9.964;2023-12-07T13:26:19;15.32;;;9.32;;
54909;SDS011;63189;51.240;9.964;2023-12-07T13:28:48;14.75;;;9.93;;
54909;SDS011;63189;51.240;9.964;2023-12-07T13:31:13;14.07;;;8.85;;
54909;SDS011;63189;51.240;9.964;2023-12-07T13:33:39;15.80;;;9.40;;
54909;SDS011;63189;51.240;9.964;2023-12-07T13:36:05;14.23;;;9.15;;
54909;SDS011;63189;51.240;9.964;2023-12-07T13:38:31;17.42;;;9.82;;
54909;SDS011;63189;51.240;9.964;2023-12-07T13:40:56;14.70;;;8.73;;
54909;SDS011;63189;51.240;9.964;2023-12-07T13:43:22;16.05;;;9.85;;
54909;SDS011;63189;51.240;9.964;2023-12-07T13:45:50;15.35;;;9.60;;
54909;SDS011;63189;51.240;9.964;2023-12-07T13:48:16;16.88;;;9.75;;
54909;SDS011;63189;51.240;9.964;2023-12-07T13:50:42;16.92;;;9.27;;
54909;SDS011;63189;51.240;9.964;2023-12-07T13:53:08;11.55;;;7.78;;
54909;SDS011;63189;51.240;9.964;2023-12-07T13:55:35;11.20;;;7.78;;
54909;SDS011;63189;51.240;9.964;2023-12-07T13:58:02;12.55;;;8.43;;
54909;SDS011;63189;51.240;9.964;2023-12-07T14:00:27;12.45;;;7.78;;
54909;SDS011;63189;51.240;9.964;2023-12-07T14:02:53;15.20;;;7.75;;
54909;SDS011;63189;51.240;9.964;2023-12-07T14:05:18;11.20;;;7.43;;
54909;SDS011;63189;51.240;9.964;2023-12-07T14:07:44;12.75;;;6.93;;
54909;SDS011;63189;51.240;9.964;2023-12-07T14:10:10;15.45;;;7.60;;
54909;SDS011;63189;51.240;9.964;2023-12-07T14:12:36;14.80;;;7.40;;
54909;SDS011;63189;51.240;9.964;2023-12-07T14:15:02;11.30;;;6.85;;
54909;SDS011;63189;51.240;9.964;2023-12-07T14:17:28;11.68;;;6.75;;
54909;SDS011;63189;51.240;9.964;2023-12-07T14:20:02;10.63;;;7.40;;
54909;SDS011;63189;51.240;9.964;2023-12-07T14:22:34;12.40;;;7.63;;
54909;SDS011;63189;51.240;9.964;2023-12-07T14:25:00;8.98;;;6.03;;
54909;SDS011;63189;51.240;9.964;2023-12-07T14:27:26;11.95;;;7.10;;
54909;SDS011;63189;51.240;9.964;2023-12-07T14:29:52;11.55;;;6.57;;
54909;SDS011;63189;51.240;9.964;2023-12-07T14:32:18;10.63;;;7.00;;
54909;SDS011;63189;51.240;9.964;2023-12-07T14:34:43;11.85;;;7.50;;
54909;SDS011;63189;51.240;9.964;2023-12-07T14:37:09;10.15;;;6.60;;
54909;SDS011;63189;51.240;9.964;2023-12-07T14:39:35;11.27;;;7.47;;